Urbana, IN (46990)

12:21 AM EST on March 01, 2015 (GMT -0500)
North Huntington County | Change Station
CLOSE
Current Station
Personal Weather Station
Location: Huntington, IN
Elevation: 817 ft
Nearby Weather Stations

Elev 817 ft 40.93 °N, 85.55 °W | Updated 1 minute ago

Snow
Snow
16.6 °F
Feels Like 17 °F
N
2.0
Wind Variable Wind from East
Gusts 3.0 mph

Today
High -- | Low -- °F
--% Chance of Precip.
Yesterday
High -- | Low -- °F
Precip. -- in
7:17 AM 6:33 PM
Waxing Gibbous, 82% visible
Pressure 30.46 in
Visibility 2.5 miles
Clouds Overcast 2200 ft
Windchill 17 °F
Dew Point 14 °F
Humidity 88%
Rainfall 0.00 in
Snow Depth Not available.
UV 0 out of 12
Pollen .30 out of 12
Air Quality Not available.
Flu Activity Not available.
METAR KASW 010515Z AUTO 12004KT 2 1/2SM -SN OVC022 M08/M10 A3046 RMK AO2

More Conditions Fewer Conditions

Pressure 30.46 in
Visibility 2.5 miles
Clouds Overcast 2200 ft
Windchill 17 °F
Dew Point 14 °F
Humidity 88%
Rainfall 0.00 in
Snow Depth Not available.
UV 0 out of 12
Pollen .30 out of 12
Air Quality Not available.
Flu Activity Not available.
METAR KASW 010515Z AUTO 12004KT 2 1/2SM -SN OVC022 M08/M10 A3046 RMK AO2

More Conditions Fewer Conditions

10-Day Weather Forecast

Almanac

Astronomy

Mar. 01, 2015 Rise Set
Actual Time
Civil Twilight
Nautical Twilight
Astronomical Twilight
Moon
Length of Visible Light
Length of Day
Tomorrow will be .
, % of the Moon is Illuminated

Today's Extremes

State Highs State Lows

Community

WunderPhotos

Upload Photos

1,801,335 photos uploaded!

WunderBlogs® & News

Nearby

Air Quality

  Air Quality AQ Index Pollutant
Not available.

Snow Depth

Station Depth Elevation

Earthquake Activity

City Distance Mag. Time & Date
Minimum magnitude displayed is 2.5.

Coastal Water Temperatures

Place Temperature

Nearby Weather Stations